Time;durP1;ratioP1;P1;durP2;ratioP2;P2;SDS_P1;SDS_P2;PMS_P1;PMS_P2;Temp;Humidity;BMP_temperature;BMP_pressure;BME280_temperature;BME280_humidity;BME280_pressure;Samples;Min_cycle;Max_cycle;Signal;HPM_P1;HPM_P2
2022/04/15 00:01:13;;;;;;;55.30;40.90;;;12.30;99.90;;;;;;5055575;28;20241;-89
2022/04/15 00:03:46;;;;;;;56.37;43.00;;;12.20;99.90;;;;;;5055354;28;20204;-84
2022/04/15 00:06:24;;;;;;;57.47;42.67;;;12.10;99.90;;;;;;5058120;28;20199;-81
2022/04/15 00:08:51;;;;;;;55.47;42.30;;;12.00;99.90;;;;;;5075621;28;20258;-88
2022/04/15 00:11:21;;;;;;;54.90;43.27;;;12.10;99.90;;;;;;5071791;28;20217;-88
2022/04/15 00:13:49;;;;;;;55.47;43.57;;;12.00;99.90;;;;;;5055610;28;20196;-86
2022/04/15 00:16:31;;;;;;;57.07;43.90;;;12.00;99.90;;;;;;5055138;28;20208;-87
2022/04/15 00:18:57;;;;;;;56.10;41.23;;;11.90;99.90;;;;;;5055230;28;20204;-84
2022/04/15 00:21:29;;;;;;;59.77;45.67;;;11.80;99.90;;;;;;5055258;28;20225;-87
2022/04/15 00:23:57;;;;;;;58.30;44.17;;;12.10;99.90;;;;;;5055825;28;20651;-89
2022/04/15 00:26:24;;;;;;;55.70;43.90;;;12.10;99.90;;;;;;5055340;28;20279;-83
2022/04/15 00:28:52;;;;;;;63.70;46.77;;;12.20;99.90;;;;;;5055686;28;20199;-87
2022/04/15 00:31:20;;;;;;;62.50;45.17;;;12.00;99.90;;;;;;5055025;28;20214;-87
2022/04/15 00:33:48;;;;;;;57.23;44.30;;;11.90;99.90;;;;;;5054888;28;20238;-87
2022/04/15 00:36:14;;;;;;;55.97;44.13;;;11.90;99.90;;;;;;5054905;28;20209;-87
2022/04/15 00:38:44;;;;;;;58.70;46.90;;;12.00;99.90;;;;;;5054486;28;20208;-86
2022/04/15 00:41:15;;;;;;;62.57;46.60;;;12.00;99.90;;;;;;5055086;28;20231;-84
2022/04/15 00:43:43;;;;;;;61.63;45.20;;;12.00;99.90;;;;;;5055242;28;20196;-88
2022/04/15 00:46:11;;;;;;;65.07;46.87;;;12.00;99.90;;;;;;5055040;28;20195;-87
2022/04/15 00:48:38;;;;;;;60.20;46.93;;;12.10;99.90;;;;;;5054706;28;20291;-83
2022/04/15 00:51:07;;;;;;;67.53;47.80;;;12.10;99.90;;;;;;5055018;28;20212;-87
2022/04/15 00:53:40;;;;;;;61.50;48.20;;;11.90;99.90;;;;;;5055142;28;20692;-88
2022/04/15 00:56:09;;;;;;;64.70;49.17;;;12.10;99.90;;;;;;5054331;28;20626;-87
2022/04/15 00:58:39;;;;;;;74.60;58.65;;;12.00;99.90;;;;;;5054053;28;20433;-88
2022/04/15 01:01:07;;;;;;;65.37;52.60;;;12.10;99.90;;;;;;5053755;28;20239;-87
2022/04/15 01:03:44;;;;;;;65.80;51.20;;;12.00;99.90;;;;;;5054953;28;20212;-88
2022/04/15 01:06:13;;;;;;;68.67;49.00;;;11.90;99.90;;;;;;5054384;28;20550;-87
2022/04/15 01:08:44;;;;;;;64.27;48.07;;;11.80;99.90;;;;;;5054802;28;20195;-88
2022/04/15 01:11:15;;;;;;;69.53;50.30;;;11.60;99.90;;;;;;5054551;28;20569;-86
2022/04/15 01:13:48;;;;;;;75.83;51.07;;;11.50;99.90;;;;;;5054875;28;20200;-88
2022/04/15 01:16:15;;;;;;;72.83;50.17;;;11.60;99.90;;;;;;5054478;28;20202;-89
2022/04/15 01:18:45;;;;;;;70.40;50.73;;;11.50;99.90;;;;;;5054053;28;20212;-88
2022/04/15 01:21:15;;;;;;;71.33;52.27;;;11.40;99.90;;;;;;5054173;28;20227;-87
2022/04/15 01:23:44;;;;;;;70.50;52.47;;;11.30;99.90;;;;;;5054242;28;20585;-87
2022/04/15 01:26:11;;;;;;;70.60;53.47;;;11.20;99.90;;;;;;5054309;28;20198;-88
2022/04/15 01:28:41;;;;;;;77.97;55.83;;;11.10;99.90;;;;;;5053729;28;20217;-88
2022/04/15 01:31:13;;;;;;;75.07;55.43;;;11.20;99.90;;;;;;5053673;28;20199;-88
2022/04/15 01:33:41;;;;;;;71.33;53.30;;;11.10;99.90;;;;;;5054347;28;20206;-87
2022/04/15 01:36:10;;;;;;;69.73;52.67;;;11.10;99.90;;;;;;5054553;28;20197;-87
2022/04/15 01:38:40;;;;;;;79.10;54.07;;;11.20;99.90;;;;;;5054348;28;20191;-88
2022/04/15 01:41:09;;;;;;;69.13;51.00;;;11.20;99.90;;;;;;5054019;28;20565;-83
2022/04/15 01:43:37;;;;;;;64.83;49.67;;;11.10;99.90;;;;;;5054102;28;20202;-88
2022/04/15 01:46:04;;;;;;;66.57;48.00;;;11.10;99.90;;;;;;5053575;28;20187;-87
2022/04/15 01:48:34;;;;;;;64.33;48.33;;;11.10;99.90;;;;;;5053096;28;20192;-88
2022/04/15 01:51:07;;;;;;;67.70;48.50;;;11.20;99.90;;;;;;5054017;28;20617;-87
2022/04/15 01:53:34;;;;;;;65.47;47.67;;;11.10;99.90;;;;;;5054175;28;20203;-88
2022/04/15 01:56:00;;;;;;;66.90;49.00;;;11.10;99.90;;;;;;5055371;28;20201;-88
2022/04/15 01:58:29;;;;;;;67.60;48.90;;;11.10;99.90;;;;;;5060340;28;20226;-84
2022/04/15 02:01:01;;;;;;;69.50;48.53;;;11.10;99.90;;;;;;5057426;28;20241;-86
2022/04/15 02:03:30;;;;;;;63.73;47.50;;;10.90;99.90;;;;;;5054356;28;20219;-89
2022/04/15 02:05:57;;;;;;;68.70;48.17;;;10.90;99.90;;;;;;5053637;28;20199;-84
2022/04/15 02:08:24;;;;;;;68.82;50.08;;;10.90;99.90;;;;;;5054050;28;20346;-84
2022/04/15 02:10:52;;;;;;;64.73;48.60;;;10.90;99.90;;;;;;5053661;28;20215;-89
2022/04/15 02:13:20;;;;;;;59.93;44.97;;;10.80;99.90;;;;;;5053276;28;20249;-89
2022/04/15 02:15:48;;;;;;;60.83;44.37;;;10.80;99.90;;;;;;5054238;28;20195;-85
2022/04/15 02:18:15;;;;;;;61.83;45.80;;;10.70;99.90;;;;;;5053945;28;20194;-89
2022/04/15 02:20:45;;;;;;;60.53;45.10;;;10.80;99.90;;;;;;5053877;28;20233;-88
2022/04/15 02:23:13;;;;;;;61.63;45.23;;;10.90;99.90;;;;;;5053903;28;20206;-89
2022/04/15 02:25:40;;;;;;;63.03;45.70;;;10.80;99.90;;;;;;5053675;28;20202;-85
2022/04/15 02:28:08;;;;;;;60.20;45.60;;;10.80;99.90;;;;;;5053489;28;20199;-89
2022/04/15 02:30:35;;;;;;;58.80;45.33;;;10.70;99.90;;;;;;5054023;28;20187;-90
2022/04/15 02:33:04;;;;;;;60.43;44.33;;;10.70;99.90;;;;;;5053360;28;20209;-89
2022/04/15 02:35:34;;;;;;;56.83;41.37;;;10.60;99.90;;;;;;5053501;28;20206;-89
2022/04/15 02:38:01;;;;;;;60.30;42.20;;;10.50;99.90;;;;;;5053567;28;20191;-89
2022/04/15 02:40:34;;;;;;;58.83;42.50;;;10.40;99.90;;;;;;5053580;28;20245;-88
2022/04/15 02:43:01;;;;;;;52.97;40.50;;;10.40;99.90;;;;;;5053572;28;20191;-89
2022/04/15 02:45:29;;;;;;;57.93;42.37;;;10.30;99.90;;;;;;5053617;28;20200;-87
2022/04/15 02:48:04;;;;;;;54.00;42.03;;;10.30;99.90;;;;;;5053302;28;20206;-86
2022/04/15 02:50:39;;;;;;;57.90;42.23;;;10.30;99.90;;;;;;5052968;28;20202;-89
2022/04/15 02:53:12;;;;;;;56.67;42.03;;;10.30;99.90;;;;;;5053079;28;20656;-87
2022/04/15 02:55:39;;;;;;;56.23;43.23;;;10.30;99.90;;;;;;5053265;28;20213;-89
2022/04/15 02:58:12;;;;;;;58.10;43.73;;;10.30;99.90;;;;;;5053820;28;20289;-89
2022/04/15 03:00:42;;;;;;;62.17;45.07;;;10.20;99.90;;;;;;5056342;28;20233;-89
2022/04/15 03:03:11;;;;;;;60.27;45.00;;;10.20;99.90;;;;;;5056702;28;20665;-89
2022/04/15 03:05:44;;;;;;;82.83;54.67;;;10.30;99.90;;;;;;5057519;28;20217;-90
2022/04/15 03:08:17;;;;;;;82.57;57.47;;;10.40;99.90;;;;;;5057323;28;20195;-88
2022/04/15 03:10:43;;;;;;;87.50;59.30;;;10.50;99.90;;;;;;5058058;28;20217;-88
2022/04/15 03:13:13;;;;;;;88.17;59.50;;;10.60;99.90;;;;;;5056941;28;20191;-91
2022/04/15 03:15:42;;;;;;;89.23;62.23;;;10.50;99.90;;;;;;5057156;28;20555;-88
2022/04/15 03:18:10;;;;;;;93.80;62.17;;;10.40;99.90;;;;;;5056542;28;20202;-88
2022/04/15 03:20:40;;;;;;;116.60;83.18;;;10.20;99.90;;;;;;5055761;28;20441;-89
2022/04/15 03:23:08;;;;;;;101.00;69.73;;;10.30;99.90;;;;;;5056598;28;20195;-87
2022/04/15 03:25:36;;;;;;;116.13;67.17;;;10.30;99.90;;;;;;5056908;28;20194;-89
2022/04/15 03:28:08;;;;;;;197.73;62.17;;;10.00;99.90;;;;;;5056594;28;20217;-88
2022/04/15 03:30:35;;;;;;;251.83;63.50;;;9.90;99.90;;;;;;5056711;28;20187;-86
2022/04/15 03:33:03;;;;;;;310.33;64.37;;;9.90;99.90;;;;;;5056578;28;20203;-88
2022/04/15 03:35:37;;;;;;;341.67;65.37;;;9.90;99.90;;;;;;5056314;28;20206;-90
2022/04/15 03:38:04;;;;;;;276.23;60.47;;;9.80;99.90;;;;;;5056155;28;20214;-90
2022/04/15 03:40:31;;;;;;;450.57;71.30;;;9.90;99.90;;;;;;5056567;28;20229;-90
2022/04/15 03:43:00;;;;;;;300.40;64.05;;;9.80;99.90;;;;;;5056222;28;20413;-91
2022/04/15 03:45:30;;;;;;;346.70;67.40;;;9.70;99.90;;;;;;5056375;28;20195;-90
2022/04/15 03:48:00;;;;;;;242.03;57.90;;;9.60;99.90;;;;;;5056299;28;20195;-91
2022/04/15 03:50:29;;;;;;;333.83;68.20;;;9.50;99.90;;;;;;5056175;28;20201;-90
2022/04/15 03:53:00;;;;;;;212.90;59.40;;;9.40;99.90;;;;;;5056463;28;20194;-88
2022/04/15 03:55:28;;;;;;;216.03;58.83;;;9.20;99.90;;;;;;5056152;28;20210;-90
2022/04/15 03:58:01;;;;;;;227.00;58.20;;;9.20;99.90;;;;;;5056009;28;20207;-89
2022/04/15 04:00:34;;;;;;;275.33;60.67;;;9.10;99.90;;;;;;5056155;28;20269;-91
2022/04/15 04:03:01;;;;;;;281.10;59.67;;;9.20;99.90;;;;;;5056011;28;20210;-90
2022/04/15 04:05:34;;;;;;;209.90;58.47;;;9.20;99.90;;;;;;5056088;28;20198;-90
2022/04/15 04:08:05;;;;;;;573.20;107.28;;;9.10;99.90;;;;;;5055298;28;20448;-91
2022/04/15 04:10:33;;;;;;;434.43;77.00;;;9.10;99.90;;;;;;5055502;28;20202;-85
2022/04/15 04:13:02;;;;;;;181.13;59.67;;;9.10;99.90;;;;;;5055447;28;20233;-90
2022/04/15 04:15:30;;;;;;;195.80;60.73;;;9.10;99.90;;;;;;5055678;28;20202;-85
2022/04/15 04:18:03;;;;;;;166.20;55.73;;;9.10;99.90;;;;;;5056102;28;20638;-91
2022/04/15 04:20:36;;;;;;;197.73;58.20;;;9.00;99.90;;;;;;5055441;28;20191;-91
2022/04/15 04:23:05;;;;;;;259.17;59.93;;;9.00;99.90;;;;;;5055469;28;20213;-89
2022/04/15 04:25:34;;;;;;;211.93;56.73;;;9.10;99.90;;;;;;5055504;28;20637;-89
2022/04/15 04:28:02;;;;;;;254.80;58.10;;;9.10;99.90;;;;;;5055380;28;20201;-88
2022/04/15 04:30:29;;;;;;;252.27;60.73;;;9.00;99.90;;;;;;5055525;28;20183;-91
2022/04/15 04:32:59;;;;;;;210.70;56.83;;;8.90;99.90;;;;;;5055498;28;20207;-91
2022/04/15 04:35:26;;;;;;;138.30;53.00;;;8.90;99.90;;;;;;5055827;28;20203;-89
2022/04/15 04:37:53;;;;;;;291.40;60.33;;;8.90;99.90;;;;;;5058278;28;20195;-91
2022/04/15 04:40:21;;;;;;;228.27;56.40;;;8.90;99.90;;;;;;5060696;28;20218;-88
2022/04/15 04:42:50;;;;;;;164.07;53.57;;;9.00;99.90;;;;;;5063952;28;20230;-91
2022/04/15 04:45:23;;;;;;;175.47;55.50;;;9.10;99.90;;;;;;5059987;28;20193;-88
2022/04/15 04:47:50;;;;;;;264.63;60.23;;;9.00;99.90;;;;;;5055630;28;20197;-90
2022/04/15 04:50:17;;;;;;;134.40;54.03;;;8.90;99.90;;;;;;5055298;28;20191;-86
2022/04/15 04:52:46;;;;;;;178.73;57.57;;;9.00;99.90;;;;;;5055166;28;20194;-91
2022/04/15 04:55:14;;;;;;;276.63;80.93;;;9.00;99.90;;;;;;5054049;28;20513;-92
2022/04/15 04:57:44;;;;;;;161.53;60.53;;;9.10;99.90;;;;;;5055142;28;20202;-91
2022/04/15 05:00:13;;;;;;;156.50;56.30;;;9.10;99.90;;;;;;5053595;28;20225;-91
2022/04/15 05:02:40;;;;;;;157.23;55.90;;;9.20;99.90;;;;;;5050643;28;20750;-88
2022/04/15 05:05:16;;;;;;;223.87;56.73;;;9.20;99.90;;;;;;5054565;28;20519;-91
2022/04/15 05:07:43;;;;;;;198.63;54.03;;;9.10;99.90;;;;;;5054456;28;20202;-90
2022/04/15 05:10:11;;;;;;;155.20;50.37;;;9.10;99.90;;;;;;5054778;28;20225;-91
2022/04/15 05:12:38;;;;;;;160.23;47.60;;;8.90;99.90;;;;;;5054625;28;20211;-89
2022/04/15 05:15:12;;;;;;;147.57;49.80;;;8.80;99.90;;;;;;5054944;28;20199;-92
2022/04/15 05:17:45;;;;;;;299.23;54.50;;;8.80;99.90;;;;;;5054488;28;20209;-92
2022/04/15 05:20:13;;;;;;;176.40;53.23;;;8.80;99.90;;;;;;5054443;28;20203;-89
2022/04/15 05:22:40;;;;;;;174.17;50.47;;;8.80;99.90;;;;;;5053938;28;20226;-91
2022/04/15 05:25:07;;;;;;;130.87;49.27;;;8.80;99.90;;;;;;5054829;28;20201;-91
2022/04/15 05:27:36;;;;;;;152.27;51.10;;;8.80;99.90;;;;;;5054357;28;20194;-92
2022/04/15 05:30:04;;;;;;;194.03;51.33;;;8.80;99.90;;;;;;5054617;28;20206;-91
2022/04/15 05:32:32;;;;;;;168.60;48.17;;;8.80;99.90;;;;;;5054321;28;20213;-91
2022/04/15 05:34:59;;;;;;;180.53;51.40;;;8.70;99.90;;;;;;5054347;28;20229;-91
2022/04/15 05:37:29;;;;;;;152.00;49.70;;;8.90;99.90;;;;;;5054207;28;20190;-91
2022/04/15 05:40:01;;;;;;;186.07;51.30;;;8.80;99.90;;;;;;5054238;28;20202;-91
2022/04/15 05:42:28;;;;;;;168.30;48.67;;;8.80;99.90;;;;;;5054024;28;20217;-92
2022/04/15 05:44:55;;;;;;;96.87;45.03;;;8.70;99.90;;;;;;5057520;28;20421;-91
2022/04/15 05:47:22;;;;;;;105.30;47.30;;;8.80;99.90;;;;;;5059100;28;20191;-90
2022/04/15 05:49:52;;;;;;;101.90;46.93;;;8.80;99.90;;;;;;5057151;28;20191;-91
2022/04/15 05:52:20;;;;;;;82.30;47.17;;;8.70;99.90;;;;;;5054246;28;20207;-91
2022/04/15 05:54:50;;;;;;;74.60;48.80;;;8.80;99.90;;;;;;5054125;28;20195;-85
2022/04/15 05:57:23;;;;;;;69.67;47.10;;;9.00;99.90;;;;;;5054260;28;20202;-91
2022/04/15 05:59:49;;;;;;;86.60;47.73;;;9.00;99.90;;;;;;5054051;28;20206;-90
2022/04/15 06:02:19;;;;;;;106.73;48.63;;;9.20;99.90;;;;;;5053462;28;20233;-89
2022/04/15 06:04:46;;;;;;;101.47;48.83;;;9.30;99.90;;;;;;5055286;28;20194;-91
2022/04/15 06:07:16;;;;;;;116.07;50.00;;;9.40;99.90;;;;;;5055400;28;20218;-92
2022/04/15 06:09:42;;;;;;;97.40;47.57;;;9.50;99.90;;;;;;5056292;28;20212;-89
2022/04/15 06:12:16;;;;;;;108.90;48.30;;;9.50;99.90;;;;;;5055599;28;20215;-90
2022/04/15 06:14:46;;;;;;;130.90;49.07;;;9.60;99.90;;;;;;5053968;28;20195;-89
2022/04/15 06:17:16;;;;;;;153.77;49.87;;;9.60;99.90;;;;;;5054044;28;20307;-90
2022/04/15 06:19:46;;;;;;;133.43;48.33;;;9.70;99.90;;;;;;5053865;28;20293;-91
2022/04/15 06:22:20;;;;;;;72.50;49.87;;;9.80;99.90;;;;;;5053446;28;20233;-91
2022/04/15 06:24:53;;;;;;;89.57;59.88;;;9.90;99.90;;;;;;5033006;28;20442;-91
2022/04/15 06:27:19;;;;;;;84.63;49.70;;;10.10;99.90;;;;;;5033772;28;20656;-90
2022/04/15 06:29:46;;;;;;;70.07;48.37;;;10.10;99.90;;;;;;5043390;28;20194;-90
2022/04/15 06:32:16;;;;;;;62.50;46.57;;;10.10;99.90;;;;;;5053772;28;20205;-86
2022/04/15 06:34:49;;;;;;;54.70;44.27;;;10.20;99.90;;;;;;5054486;28;20201;-91
2022/04/15 06:37:15;;;;;;;51.30;43.20;;;10.30;99.90;;;;;;5057632;28;20191;-93
2022/04/15 06:39:50;;;;;;;50.83;43.30;;;10.40;99.90;;;;;;5056907;28;20214;-92
2022/04/15 06:42:22;;;;;;;50.63;42.93;;;10.50;99.90;;;;;;5057727;28;20228;-92
2022/04/15 06:44:49;;;;;;;47.07;41.47;;;10.50;99.90;;;;;;5057420;28;20191;-86
2022/04/15 06:47:17;;;;;;;50.13;43.00;;;10.50;99.90;;;;;;5058364;28;20194;-91
2022/04/15 06:49:45;;;;;;;57.00;44.73;;;10.70;99.90;;;;;;5055721;28;20186;-89
2022/04/15 06:52:15;;;;;;;51.83;42.83;;;10.60;99.90;;;;;;5058588;28;20206;-92
2022/04/15 06:54:53;;;;;;;58.43;45.03;;;10.80;99.90;;;;;;5057325;28;20195;-92
2022/04/15 06:57:20;;;;;;;54.87;43.33;;;11.00;99.90;;;;;;5057358;28;20206;-90
2022/04/15 06:59:50;;;;;;;56.13;43.93;;;10.60;99.90;;;;;;5057091;28;20199;-88
2022/04/15 07:02:17;;;;;;;51.57;42.20;;;10.80;99.90;;;;;;5057091;28;20238;-90
2022/04/15 07:04:46;;;;;;;50.17;41.27;;;10.90;99.90;;;;;;5056888;28;20650;-90
2022/04/15 07:07:15;;;;;;;50.97;40.93;;;11.00;99.90;;;;;;5057257;28;20192;-90
2022/04/15 07:09:42;;;;;;;51.97;40.20;;;10.90;99.90;;;;;;5056966;28;20206;-89
2022/04/15 07:12:16;;;;;;;49.70;39.93;;;10.80;99.90;;;;;;5057004;28;20191;-90
2022/04/15 07:14:43;;;;;;;50.63;41.03;;;10.80;99.90;;;;;;5057001;28;20186;-90
2022/04/15 07:17:10;;;;;;;47.77;38.40;;;11.00;99.90;;;;;;5057002;28;20274;-89
2022/04/15 07:19:37;;;;;;;44.20;38.37;;;11.20;99.90;;;;;;5056872;28;20202;-89
2022/04/15 07:22:05;;;;;;;46.90;38.17;;;11.20;99.90;;;;;;5057201;28;20276;-88
2022/04/15 07:24:33;;;;;;;44.80;36.20;;;11.30;99.90;;;;;;5040658;28;20637;-91
2022/04/15 07:27:11;;;;;;;45.50;36.67;;;11.20;99.90;;;;;;5056715;28;20195;-90
2022/04/15 07:29:45;;;;;;;47.70;36.47;;;11.40;99.90;;;;;;5056953;28;20196;-87
2022/04/15 07:32:16;;;;;;;47.13;36.80;;;11.60;99.90;;;;;;5057977;28;20193;-90
2022/04/15 07:34:43;;;;;;;52.00;37.77;;;11.70;99.90;;;;;;5060137;28;20184;-88
2022/04/15 07:37:09;;;;;;;40.73;34.03;;;11.90;99.90;;;;;;5063474;28;20207;-92
2022/04/15 07:39:42;;;;;;;39.53;32.70;;;12.00;99.90;;;;;;5059774;28;20204;-92
2022/04/15 07:42:12;;;;;;;45.35;39.47;;;12.00;99.90;;;;;;5054390;28;20525;-93
2022/04/15 07:44:44;;;;;;;37.53;32.23;;;12.40;99.90;;;;;;5059071;28;20202;-91
2022/04/15 07:47:15;;;;;;;36.97;30.83;;;12.50;99.90;;;;;;5056813;28;20254;-92
2022/04/15 07:49:44;;;;;;;35.80;30.20;;;12.30;99.90;;;;;;5056248;28;20203;-92
2022/04/15 07:52:20;;;;;;;31.87;27.83;;;12.30;99.90;;;;;;5057735;28;20207;-93
2022/04/15 07:54:48;;;;;;;34.73;28.10;;;12.20;99.90;;;;;;5055607;28;20208;-91
2022/04/15 07:57:26;;;;;;;38.27;29.53;;;12.40;99.90;;;;;;5057321;28;20275;-91
2022/04/15 07:59:53;;;;;;;35.50;29.37;;;12.40;99.90;;;;;;5057341;28;20750;-90
2022/04/15 08:02:21;;;;;;;32.53;28.27;;;12.30;99.90;;;;;;5055709;28;20700;-94
2022/04/15 08:04:51;;;;;;;37.37;28.30;;;12.40;99.90;;;;;;5057078;28;20215;-92
2022/04/15 08:07:18;;;;;;;36.53;28.30;;;12.70;99.90;;;;;;5055308;28;20248;-87
2022/04/15 08:09:45;;;;;;;34.03;27.30;;;13.00;99.90;;;;;;5052761;28;20209;-84
2022/04/15 08:12:17;;;;;;;33.47;26.10;;;13.20;99.90;;;;;;5054032;28;20227;-84
2022/04/15 08:14:44;;;;;;;31.17;23.77;;;13.30;99.90;;;;;;5054595;28;20205;-84
2022/04/15 08:17:13;;;;;;;29.63;22.23;;;13.40;99.90;;;;;;5054239;28;20195;-84
2022/04/15 08:19:41;;;;;;;26.10;19.10;;;13.70;99.90;;;;;;5054092;28;20198;-84
2022/04/15 08:22:10;;;;;;;26.77;20.27;;;13.90;99.90;;;;;;5051853;28;20228;-85
2022/04/15 08:24:42;;;;;;;22.13;19.77;;;14.00;99.90;;;;;;5054952;28;20203;-84
2022/04/15 08:27:09;;;;;;;24.17;20.23;;;13.90;99.90;;;;;;5055210;28;20208;-84
2022/04/15 08:29:38;;;;;;;27.17;21.63;;;13.80;99.90;;;;;;5054259;28;20195;-84
2022/04/15 08:32:07;;;;;;;29.73;20.00;;;13.80;99.90;;;;;;5054367;28;20201;-84
2022/04/15 08:34:34;;;;;;;29.17;21.07;;;14.00;99.90;;;;;;5053956;28;20236;-84
2022/04/15 08:37:03;;;;;;;25.10;21.27;;;14.10;99.90;;;;;;5054300;28;20213;-84
2022/04/15 08:39:30;;;;;;;22.60;16.87;;;14.00;99.90;;;;;;5054190;28;20206;-85
2022/04/15 08:41:58;;;;;;;21.50;16.80;;;14.10;99.90;;;;;;5055038;28;20229;-84
2022/04/15 08:44:26;;;;;;;22.33;17.47;;;14.20;99.90;;;;;;5054318;28;20658;-85
2022/04/15 08:46:53;;;;;;;22.10;19.33;;;14.50;99.90;;;;;;5054271;28;20369;-83
2022/04/15 08:49:22;;;;;;;23.70;19.33;;;14.50;99.90;;;;;;5054114;28;20210;-84
2022/04/15 08:51:50;;;;;;;24.00;18.33;;;14.70;99.90;;;;;;5054696;28;20742;-84
2022/04/15 08:54:19;;;;;;;23.00;17.03;;;14.80;99.90;;;;;;5054733;28;20202;-84
2022/04/15 08:56:45;;;;;;;20.40;16.10;;;15.10;99.90;;;;;;5053418;28;20209;-83
2022/04/15 08:59:12;;;;;;;17.30;13.63;;;15.00;99.90;;;;;;5054464;28;20565;-84
2022/04/15 09:01:39;;;;;;;18.67;13.43;;;15.00;99.90;;;;;;5053200;28;20230;-84
2022/04/15 09:04:06;;;;;;;18.60;14.20;;;15.00;99.90;;;;;;5053786;28;20237;-84
2022/04/15 09:06:33;;;;;;;18.70;14.63;;;15.10;99.90;;;;;;5054182;28;20214;-84
2022/04/15 09:09:02;;;;;;;20.47;14.57;;;15.00;99.90;;;;;;5055174;28;20208;-84
2022/04/15 09:11:35;;;;;;;14.10;9.60;;;15.00;99.90;;;;;;5055041;28;20207;-84
2022/04/15 09:14:04;;;;;;;13.17;10.10;;;15.00;99.90;;;;;;5053882;28;20202;-84
2022/04/15 09:16:31;;;;;;;12.70;10.75;;;14.90;99.90;;;;;;5054052;28;20511;-84
2022/04/15 09:18:59;;;;;;;12.90;10.30;;;15.30;99.90;;;;;;5053852;28;20252;-83
2022/04/15 09:21:27;;;;;;;14.17;10.37;;;15.50;99.90;;;;;;5053918;28;20207;-84
2022/04/15 09:23:56;;;;;;;12.43;9.93;;;15.60;99.90;;;;;;5053813;28;20224;-83
2022/04/15 09:26:24;;;;;;;12.37;10.60;;;15.70;99.90;;;;;;5055653;28;20223;-83
2022/04/15 09:28:54;;;;;;;11.37;9.43;;;15.80;99.90;;;;;;5054550;28;20212;-83
2022/04/15 09:31:23;;;;;;;12.77;10.33;;;16.10;99.90;;;;;;5054850;28;20207;-82
2022/04/15 09:33:52;;;;;;;12.30;9.83;;;16.20;99.90;;;;;;5053815;28;20713;-83
2022/04/15 09:36:30;;;;;;;13.40;10.10;;;16.30;99.90;;;;;;5056366;28;20213;-82
2022/04/15 09:39:02;;;;;;;15.03;10.73;;;16.30;99.90;;;;;;5052107;28;20193;-84
2022/04/15 09:41:32;;;;;;;16.98;13.85;;;16.20;99.90;;;;;;5054140;28;20455;-83
2022/04/15 09:44:01;;;;;;;13.03;10.77;;;16.10;99.90;;;;;;5054655;28;20232;-85
2022/04/15 09:46:30;;;;;;;10.53;9.07;;;16.00;99.90;;;;;;5054891;28;20267;-82
2022/04/15 09:49:03;;;;;;;12.50;10.77;;;16.20;99.90;;;;;;5055654;28;20212;-79
2022/04/15 09:51:34;;;;;;;12.03;10.83;;;16.20;99.90;;;;;;5054717;28;20209;-76
2022/04/15 09:54:04;;;;;;;14.40;10.47;;;16.30;99.90;;;;;;5053577;28;20209;-77
2022/04/15 09:56:34;;;;;;;13.33;9.50;;;16.40;99.90;;;;;;5054395;28;20214;-75
2022/04/15 09:59:06;;;;;;;12.00;9.43;;;16.50;99.90;;;;;;5055069;28;20201;-76
2022/04/15 10:01:34;;;;;;;12.57;10.93;;;16.30;99.90;;;;;;5053072;28;20233;-74
2022/04/15 10:04:01;;;;;;;12.05;9.57;;;16.20;99.90;;;;;;5052795;28;20468;-76
2022/04/15 10:06:29;;;;;;;16.97;11.57;;;16.20;99.90;;;;;;5053386;28;20221;-76
2022/04/15 10:08:57;;;;;;;16.03;11.53;;;16.20;99.90;;;;;;5053776;28;20285;-77
2022/04/15 10:11:24;;;;;;;12.43;9.53;;;16.40;99.90;;;;;;5054488;28;20198;-76
2022/04/15 10:13:52;;;;;;;12.53;10.27;;;16.60;99.90;;;;;;5053229;28;20202;-77
2022/04/15 10:16:21;;;;;;;12.50;10.27;;;16.70;99.90;;;;;;5059807;28;20242;-76
2022/04/15 10:18:49;;;;;;;13.47;10.97;;;16.90;99.90;;;;;;5055817;28;20194;-76
2022/04/15 10:21:16;;;;;;;13.67;11.43;;;16.90;99.90;;;;;;5057948;28;20202;-77
2022/04/15 10:23:43;;;;;;;17.17;13.07;;;17.00;99.90;;;;;;5052255;28;20685;-76
2022/04/15 10:26:11;;;;;;;13.97;12.57;;;16.90;99.90;;;;;;5050368;28;20204;-76
2022/04/15 10:28:41;;;;;;;12.83;10.43;;;17.00;99.90;;;;;;5052725;28;20199;-78
2022/04/15 10:31:11;;;;;;;12.30;10.90;;;17.10;99.90;;;;;;5053070;28;20201;-78
2022/04/15 10:33:40;;;;;;;14.27;9.90;;;17.10;99.90;;;;;;5054348;28;20198;-77
2022/04/15 10:36:13;;;;;;;11.90;10.67;;;17.20;99.90;;;;;;5054349;28;20297;-75
2022/04/15 10:39:11;;;;;;;12.77;9.60;;;17.30;99.90;;;;;;5052014;28;20192;-74
2022/04/15 10:41:51;;;;;;;13.10;10.00;;;17.30;99.90;;;;;;5056849;28;20206;-77
2022/04/15 10:44:35;;;;;;;12.63;10.27;;;17.30;99.90;;;;;;5053029;28;20259;-76
2022/04/15 10:47:10;;;;;;;16.00;11.63;;;17.50;99.90;;;;;;5052292;28;20199;-79
2022/04/15 10:49:40;;;;;;;15.33;12.63;;;17.70;99.90;;;;;;5053472;28;20204;-80
2022/04/15 10:52:18;;;;;;;12.43;11.13;;;17.80;99.90;;;;;;5053067;28;20200;-77
2022/04/15 10:54:46;;;;;;;13.63;11.50;;;17.60;99.90;;;;;;5053838;28;20292;-83
2022/04/15 10:57:15;;;;;;;13.10;11.63;;;17.40;99.90;;;;;;5049086;28;20674;-83
2022/04/15 11:02:43;;;;;;;11.70;10.33;;;17.50;99.90;;;;;;5032550;28;20221;-83
2022/04/15 11:05:13;;;;;;;11.60;10.03;;;17.70;99.90;;;;;;5032453;28;20203;-84
2022/04/15 11:07:49;;;;;;;11.13;9.80;;;17.60;99.90;;;;;;5050428;28;20213;-81
2022/04/15 11:10:19;;;;;;;11.20;10.07;;;17.90;99.90;;;;;;5053482;28;20210;-87
2022/04/15 11:12:46;;;;;;;15.27;11.17;;;18.40;99.90;;;;;;5057748;28;20194;-86
2022/04/15 11:15:15;;;;;;;12.30;10.43;;;18.20;99.90;;;;;;5062556;28;20220;-87
2022/04/15 11:17:46;;;;;;;11.10;9.93;;;17.90;99.90;;;;;;5059727;28;20704;-82
2022/04/15 11:20:15;;;;;;;13.50;11.10;;;18.60;99.90;;;;;;5066641;28;20212;-82
2022/04/15 11:22:43;;;;;;;12.53;11.00;;;18.50;99.90;;;;;;5070280;28;20212;-82
2022/04/15 11:25:11;;;;;;;11.40;9.57;;;18.00;99.90;;;;;;5069733;28;20217;-84
2022/04/15 11:27:39;;;;;;;12.73;10.60;;;18.10;99.90;;;;;;5068397;28;20201;-82
2022/04/15 11:30:12;;;;;;;12.03;10.40;;;18.30;99.90;;;;;;5066339;28;20203;-82
2022/04/15 11:32:51;;;;;;;10.27;9.33;;;18.60;99.90;;;;;;5065103;28;20214;-83
2022/04/15 11:35:30;;;;;;;13.80;9.40;;;18.50;99.90;;;;;;5067431;28;20206;-84
2022/04/15 11:37:58;;;;;;;10.87;9.57;;;18.40;99.90;;;;;;5067231;28;20205;-83
2022/04/15 11:40:28;;;;;;;10.77;8.80;;;18.50;99.90;;;;;;5066075;28;20274;-84
2022/04/15 11:42:58;;;;;;;11.40;9.73;;;18.80;99.90;;;;;;5068380;28;20233;-84
2022/04/15 11:45:36;;;;;;;10.93;9.83;;;18.50;99.90;;;;;;5068290;28;20224;-82
2022/04/15 11:48:18;;;;;;;9.73;8.73;;;18.60;99.90;;;;;;5067130;28;20217;-83
2022/04/15 11:50:47;;;;;;;11.77;9.03;;;18.80;99.90;;;;;;5065537;28;20285;-85
2022/04/15 11:53:14;;;;;;;13.53;10.50;;;18.80;99.90;;;;;;5067404;28;20206;-85
2022/04/15 11:55:51;;;;;;;11.70;10.50;;;18.60;99.90;;;;;;5065573;28;20207;-83
2022/04/15 11:58:18;;;;;;;12.87;11.47;;;18.70;99.90;;;;;;5066411;28;20246;-84
2022/04/15 12:00:51;;;;;;;13.27;11.97;;;19.00;99.90;;;;;;5065264;28;20252;-83
2022/04/15 12:03:18;;;;;;;12.53;11.37;;;19.50;99.90;;;;;;5067064;28;20236;-83
2022/04/15 12:05:46;;;;;;;12.50;11.07;;;19.30;99.90;;;;;;5067806;28;20637;-83
2022/04/15 12:08:15;;;;;;;12.10;10.67;;;19.10;99.90;;;;;;5064911;28;20232;-91
2022/04/15 12:10:44;;;;;;;11.87;10.73;;;18.90;99.90;;;;;;5066009;28;20224;-88
2022/04/15 12:13:13;;;;;;;12.90;9.70;;;18.60;99.90;;;;;;5064246;28;20229;-89
2022/04/15 12:15:40;;;;;;;11.07;9.97;;;18.20;99.90;;;;;;5058750;28;20288;-90
2022/04/15 12:18:07;;;;;;;11.30;9.80;;;17.90;99.90;;;;;;5060183;28;20202;-90
2022/04/15 12:20:35;;;;;;;10.50;9.47;;;17.90;99.90;;;;;;5059999;28;20229;-90
2022/04/15 12:23:09;;;;;;;8.87;8.07;;;18.00;99.90;;;;;;5056682;28;20202;-91
2022/04/15 12:30:57;;;;;;;7.53;6.83;;;18.60;99.90;;;;;;5055124;28;20242;-82
2022/04/15 12:33:24;;;;;;;7.17;6.57;;;18.60;99.90;;;;;;5054352;28;20214;-84
2022/04/15 12:35:58;;;;;;;7.30;6.70;;;18.70;99.90;;;;;;5055260;28;20187;-84
2022/04/15 12:38:26;;;;;;;8.73;7.27;;;18.40;99.90;;;;;;5054279;28;20210;-85
2022/04/15 12:40:59;;;;;;;7.60;6.30;;;18.40;99.90;;;;;;5054742;28;20213;-84
2022/04/15 12:43:25;;;;;;;7.97;5.33;;;18.30;99.90;;;;;;5054467;28;20222;-84
2022/04/15 12:45:56;;;;;;;5.67;5.07;;;18.40;99.90;;;;;;5054685;28;20641;-84
2022/04/15 12:48:24;;;;;;;7.53;6.80;;;18.80;99.90;;;;;;5054220;28;20475;-84